<?xml version="1.0" encoding="UTF-8" standalone="no" ?>
<gpx xmlns="http://www.topografix.com/GPX/1/1" xmlns:xsi="http://www.w3.org/2001/XMLSchema-instance" xsi:schemaLocation="http://www.topografix.com/GPX/1/1 http://www.topografix.com/GPX/1/1/gpx.xsd" version="1.1" creator="VisuGPX - https://www.visugpx.com">
  <metadata>
    <name>65 - PEDESTRE - Cauterets - boucle sur les contreforts par la Raillère.</name>
    <desc><![CDATA[Dernière sortie de l'année 2011]]></desc>
  </metadata>
  <trk>
    <name><![CDATA[ACTIVE LOG 003]]></name>
    <trkseg>
      <trkpt lat="42.88836" lon="-0.1161">
        <ele>808.125488</ele>
        <time>2011-12-31T13:10:15Z</time>
      </trkpt>
      <trkpt lat="42.88835" lon="-0.1161">
        <ele>807.644775</ele>
        <time>2011-12-31T13:10:16Z</time>
      </trkpt>
      <trkpt lat="42.88835" lon="-0.11612">
        <ele>808.605957</ele>
        <time>2011-12-31T13:10:18Z</time>
      </trkpt>
      <trkpt lat="42.88835" lon="-0.11615">
        <ele>811.970703</ele>
        <time>2011-12-31T13:10:28Z</time>
      </trkpt>
      <trkpt lat="42.88835" lon="-0.11615">
        <ele>815.335449</ele>
        <time>2011-12-31T13:10:29Z</time>
      </trkpt>
      <trkpt lat="42.88835" lon="-0.11615">
        <ele>818.219238</ele>
        <time>2011-12-31T13:10:30Z</time>
      </trkpt>
      <trkpt lat="42.88837" lon="-0.11614">
        <ele>823.506592</ele>
        <time>2011-12-31T13:10:32Z</time>
      </trkpt>
      <trkpt lat="42.88838" lon="-0.11614">
        <ele>826.871094</ele>
        <time>2011-12-31T13:10:33Z</time>
      </trkpt>
      <trkpt lat="42.88839" lon="-0.11614">
        <ele>832.63916</ele>
        <time>2011-12-31T13:10:35Z</time>
      </trkpt>
      <trkpt lat="42.88839" lon="-0.11614">
        <ele>837.445557</ele>
        <time>2011-12-31T13:10:39Z</time>
      </trkpt>
      <trkpt lat="42.88839" lon="-0.11614">
        <ele>843.213379</ele>
        <time>2011-12-31T13:10:41Z</time>
      </trkpt>
      <trkpt lat="42.88839" lon="-0.11613">
        <ele>846.097656</ele>
        <time>2011-12-31T13:10:42Z</time>
      </trkpt>
      <trkpt lat="42.8884" lon="-0.11612">
        <ele>850.423584</ele>
        <time>2011-12-31T13:10:43Z</time>
      </trkpt>
      <trkpt lat="42.88838" lon="-0.11612">
        <ele>855.710693</ele>
        <time>2011-12-31T13:10:45Z</time>
      </trkpt>
      <trkpt lat="42.88834" lon="-0.11614">
        <ele>860.517334</ele>
        <time>2011-12-31T13:10:47Z</time>
      </trkpt>
      <trkpt lat="42.88831" lon="-0.11614">
        <ele>865.804688</ele>
        <time>2011-12-31T13:10:49Z</time>
      </trkpt>
      <trkpt lat="42.88829" lon="-0.11614">
        <ele>867.246582</ele>
        <time>2011-12-31T13:10:50Z</time>
      </trkpt>
      <trkpt lat="42.88823" lon="-0.11616">
        <ele>874.456299</ele>
        <time>2011-12-31T13:10:53Z</time>
      </trkpt>
      <trkpt lat="42.88821" lon="-0.11618">
        <ele>878.301758</ele>
        <time>2011-12-31T13:10:55Z</time>
      </trkpt>
      <trkpt lat="42.88823" lon="-0.11619">
        <ele>882.146973</ele>
        <time>2011-12-31T13:10:57Z</time>
      </trkpt>
      <trkpt lat="42.88823" lon="-0.11619">
        <ele>884.550293</ele>
        <time>2011-12-31T13:10:58Z</time>
      </trkpt>
      <trkpt lat="42.88822" lon="-0.11622">
        <ele>891.279297</ele>
        <time>2011-12-31T13:11:02Z</time>
      </trkpt>
      <trkpt lat="42.88823" lon="-0.11622">
        <ele>894.644043</ele>
        <time>2011-12-31T13:11:04Z</time>
      </trkpt>
      <trkpt lat="42.88825" lon="-0.11622">
        <ele>898.489258</ele>
        <time>2011-12-31T13:11:06Z</time>
      </trkpt>
      <trkpt lat="42.88826" lon="-0.11622">
        <ele>901.854004</ele>
        <time>2011-12-31T13:11:09Z</time>
      </trkpt>
      <trkpt lat="42.88826" lon="-0.11625">
        <ele>904.737793</ele>
        <time>2011-12-31T13:11:11Z</time>
      </trkpt>
      <trkpt lat="42.88825" lon="-0.11628">
        <ele>908.102783</ele>
        <time>2011-12-31T13:11:14Z</time>
      </trkpt>
      <trkpt lat="42.88824" lon="-0.11628">
        <ele>911.947998</ele>
        <time>2011-12-31T13:11:18Z</time>
      </trkpt>
      <trkpt lat="42.88823" lon="-0.11628">
        <ele>916.273682</ele>
        <time>2011-12-31T13:11:22Z</time>
      </trkpt>
      <trkpt lat="42.88822" lon="-0.11628">
        <ele>920.599609</ele>
        <time>2011-12-31T13:11:26Z</time>
      </trkpt>
      <trkpt lat="42.88827" lon="-0.11629">
        <ele>923.964111</ele>
        <time>2011-12-31T13:11:29Z</time>
      </trkpt>
      <trkpt lat="42.88827" lon="-0.1163">
        <ele>927.329102</ele>
        <time>2011-12-31T13:11:33Z</time>
      </trkpt>
      <trkpt lat="42.88824" lon="-0.11635">
        <ele>930.693604</ele>
        <time>2011-12-31T13:11:37Z</time>
      </trkpt>
      <trkpt lat="42.88821" lon="-0.11638">
        <ele>934.058105</ele>
        <time>2011-12-31T13:11:42Z</time>
      </trkpt>
      <trkpt lat="42.88816" lon="-0.11639">
        <ele>937.90332</ele>
        <time>2011-12-31T13:11:50Z</time>
      </trkpt>
      <trkpt lat="42.88808" lon="-0.1164">
        <ele>941.268066</ele>
        <time>2011-12-31T13:11:58Z</time>
      </trkpt>
      <trkpt lat="42.88807" lon="-0.11644">
        <ele>944.1521</ele>
        <time>2011-12-31T13:12:07Z</time>
      </trkpt>
      <trkpt lat="42.88814" lon="-0.11648">
        <ele>947.516602</ele>
        <time>2011-12-31T13:12:22Z</time>
      </trkpt>
      <trkpt lat="42.8881" lon="-0.11651">
        <ele>950.881104</ele>
        <time>2011-12-31T13:12:29Z</time>
      </trkpt>
      <trkpt lat="42.88806" lon="-0.11649">
        <ele>952.322998</ele>
        <time>2011-12-31T13:12:41Z</time>
      </trkpt>
      <trkpt lat="42.88796" lon="-0.11652">
        <ele>952.322998</ele>
        <time>2011-12-31T13:13:12Z</time>
      </trkpt>
      <trkpt lat="42.88794" lon="-0.11649">
        <ele>951.842529</ele>
        <time>2011-12-31T13:13:39Z</time>
      </trkpt>
      <trkpt lat="42.88793" lon="-0.11643">
        <ele>952.803711</ele>
        <time>2011-12-31T13:13:48Z</time>
      </trkpt>
      <trkpt lat="42.88786" lon="-0.11666">
        <ele>952.803711</ele>
        <time>2011-12-31T13:14:11Z</time>
      </trkpt>
      <trkpt lat="42.8877" lon="-0.1166">
        <ele>955.207031</ele>
        <time>2011-12-31T13:14:27Z</time>
      </trkpt>
      <trkpt lat="42.88761" lon="-0.11647">
        <ele>956.168457</ele>
        <time>2011-12-31T13:14:39Z</time>
      </trkpt>
      <trkpt lat="42.88752" lon="-0.11635">
        <ele>958.091309</ele>
        <time>2011-12-31T13:14:51Z</time>
      </trkpt>
      <trkpt lat="42.88747" lon="-0.11625">
        <ele>958.571777</ele>
        <time>2011-12-31T13:15:01Z</time>
      </trkpt>
      <trkpt lat="42.88736" lon="-0.11619">
        <ele>958.571777</ele>
        <time>2011-12-31T13:15:13Z</time>
      </trkpt>
      <trkpt lat="42.88729" lon="-0.11619">
        <ele>959.05249</ele>
        <time>2011-12-31T13:15:18Z</time>
      </trkpt>
      <trkpt lat="42.88724" lon="-0.1162">
        <ele>959.05249</ele>
        <time>2011-12-31T13:15:28Z</time>
      </trkpt>
      <trkpt lat="42.88731" lon="-0.11623">
        <ele>959.533203</ele>
        <time>2011-12-31T13:15:36Z</time>
      </trkpt>
      <trkpt lat="42.88743" lon="-0.11631">
        <ele>960.975098</ele>
        <time>2011-12-31T13:15:50Z</time>
      </trkpt>
      <trkpt lat="42.88753" lon="-0.11635">
        <ele>960.975098</ele>
        <time>2011-12-31T13:16:02Z</time>
      </trkpt>
      <trkpt lat="42.88765" lon="-0.11647">
        <ele>961.455811</ele>
        <time>2011-12-31T13:16:15Z</time>
      </trkpt>
      <trkpt lat="42.88775" lon="-0.11653">
        <ele>962.416992</ele>
        <time>2011-12-31T13:16:26Z</time>
      </trkpt>
      <trkpt lat="42.88786" lon="-0.11664">
        <ele>962.897705</ele>
        <time>2011-12-31T13:16:38Z</time>
      </trkpt>
      <trkpt lat="42.88786" lon="-0.1167">
        <ele>963.378418</ele>
        <time>2011-12-31T13:16:44Z</time>
      </trkpt>
      <trkpt lat="42.88774" lon="-0.11668">
        <ele>964.3396</ele>
        <time>2011-12-31T13:16:53Z</time>
      </trkpt>
      <trkpt lat="42.88761" lon="-0.11664">
        <ele>965.301025</ele>
        <time>2011-12-31T13:17:05Z</time>
      </trkpt>
      <trkpt lat="42.88754" lon="-0.11656">
        <ele>965.781738</ele>
        <time>2011-12-31T13:17:17Z</time>
      </trkpt>
      <trkpt lat="42.88737" lon="-0.11649">
        <ele>966.262207</ele>
        <time>2011-12-31T13:17:33Z</time>
      </trkpt>
      <trkpt lat="42.88728" lon="-0.11641">
        <ele>968.184814</ele>
        <time>2011-12-31T13:17:45Z</time>
      </trkpt>
      <trkpt lat="42.88722" lon="-0.11637">
        <ele>969.14624</ele>
        <time>2011-12-31T13:17:54Z</time>
      </trkpt>
      <trkpt lat="42.88728" lon="-0.11647">
        <ele>969.626953</ele>
        <time>2011-12-31T13:18:07Z</time>
      </trkpt>
      <trkpt lat="42.88733" lon="-0.11648">
        <ele>970.107422</ele>
        <time>2011-12-31T13:18:11Z</time>
      </trkpt>
      <trkpt lat="42.88736" lon="-0.1165">
        <ele>970.588135</ele>
        <time>2011-12-31T13:18:14Z</time>
      </trkpt>
      <trkpt lat="42.88744" lon="-0.11653">
        <ele>970.588135</ele>
        <time>2011-12-31T13:18:21Z</time>
      </trkpt>
      <trkpt lat="42.88755" lon="-0.11661">
        <ele>971.068848</ele>
        <time>2011-12-31T13:18:32Z</time>
      </trkpt>
      <trkpt lat="42.88777" lon="-0.11673">
        <ele>971.549316</ele>
        <time>2011-12-31T13:18:53Z</time>
      </trkpt>
      <trkpt lat="42.88791" lon="-0.11688">
        <ele>972.510986</ele>
        <time>2011-12-31T13:19:10Z</time>
      </trkpt>
      <trkpt lat="42.88793" lon="-0.11692">
        <ele>973.472412</ele>
        <time>2011-12-31T13:19:15Z</time>
      </trkpt>
      <trkpt lat="42.88794" lon="-0.11694">
        <ele>972.991699</ele>
        <time>2011-12-31T13:19:17Z</time>
      </trkpt>
      <trkpt lat="42.8879" lon="-0.11698">
        <ele>974.433594</ele>
        <time>2011-12-31T13:19:22Z</time>
      </trkpt>
      <trkpt lat="42.88775" lon="-0.11694">
        <ele>975.875488</ele>
        <time>2011-12-31T13:19:38Z</time>
      </trkpt>
      <trkpt lat="42.88763" lon="-0.11692">
        <ele>979.23999</ele>
        <time>2011-12-31T13:19:53Z</time>
      </trkpt>
      <trkpt lat="42.88751" lon="-0.11686">
        <ele>980.682129</ele>
        <time>2011-12-31T13:20:05Z</time>
      </trkpt>
      <trkpt lat="42.88736" lon="-0.11679">
        <ele>981.643311</ele>
        <time>2011-12-31T13:20:20Z</time>
      </trkpt>
      <trkpt lat="42.88722" lon="-0.11674">
        <ele>982.124023</ele>
        <time>2011-12-31T13:20:36Z</time>
      </trkpt>
      <trkpt lat="42.8871" lon="-0.1167">
        <ele>983.565918</ele>
        <time>2011-12-31T13:20:51Z</time>
      </trkpt>
      <trkpt lat="42.88699" lon="-0.11669">
        <ele>985.488525</ele>
        <time>2011-12-31T13:21:04Z</time>
      </trkpt>
      <trkpt lat="42.88696" lon="-0.11665">
        <ele>985.008057</ele>
        <time>2011-12-31T13:21:18Z</time>
      </trkpt>
      <trkpt lat="42.88701" lon="-0.1167">
        <ele>985.488525</ele>
        <time>2011-12-31T13:21:31Z</time>
      </trkpt>
      <trkpt lat="42.88702" lon="-0.11671">
        <ele>985.008057</ele>
        <time>2011-12-31T13:21:35Z</time>
      </trkpt>
      <trkpt lat="42.88693" lon="-0.11664">
        <ele>985.008057</ele>
        <time>2011-12-31T13:21:43Z</time>
      </trkpt>
      <trkpt lat="42.88672" lon="-0.11654">
        <ele>985.488525</ele>
        <time>2011-12-31T13:21:58Z</time>
      </trkpt>
      <trkpt lat="42.88663" lon="-0.11648">
        <ele>985.969238</ele>
        <time>2011-12-31T13:22:06Z</time>
      </trkpt>
      <trkpt lat="42.88652" lon="-0.11638">
        <ele>985.969238</ele>
        <time>2011-12-31T13:22:21Z</time>
      </trkpt>
      <trkpt lat="42.8864" lon="-0.11639">
        <ele>985.969238</ele>
        <time>2011-12-31T13:22:36Z</time>
      </trkpt>
      <trkpt lat="42.88631" lon="-0.11636">
        <ele>986.449951</ele>
        <time>2011-12-31T13:22:49Z</time>
      </trkpt>
      <trkpt lat="42.88622" lon="-0.11619">
        <ele>986.449951</ele>
        <time>2011-12-31T13:23:00Z</time>
      </trkpt>
      <trkpt lat="42.88613" lon="-0.11611">
        <ele>988.372803</ele>
        <time>2011-12-31T13:23:09Z</time>
      </trkpt>
      <trkpt lat="42.88598" lon="-0.11603">
        <ele>989.333984</ele>
        <time>2011-12-31T13:23:22Z</time>
      </trkpt>
      <trkpt lat="42.88584" lon="-0.11598">
        <ele>991.256592</ele>
        <time>2011-12-31T13:23:38Z</time>
      </trkpt>
      <trkpt lat="42.88571" lon="-0.11594">
        <ele>991.256592</ele>
        <time>2011-12-31T13:23:55Z</time>
      </trkpt>
      <trkpt lat="42.88556" lon="-0.11585">
        <ele>992.69873</ele>
        <time>2011-12-31T13:24:09Z</time>
      </trkpt>
      <trkpt lat="42.88547" lon="-0.11582">
        <ele>994.140625</ele>
        <time>2011-12-31T13:24:16Z</time>
      </trkpt>
      <trkpt lat="42.88533" lon="-0.11576">
        <ele>994.140625</ele>
        <time>2011-12-31T13:24:30Z</time>
      </trkpt>
      <trkpt lat="42.88524" lon="-0.11571">
        <ele>994.621094</ele>
        <time>2011-12-31T13:24:38Z</time>
      </trkpt>
      <trkpt lat="42.88519" lon="-0.11567">
        <ele>994.621094</ele>
        <time>2011-12-31T13:24:43Z</time>
      </trkpt>
      <trkpt lat="42.88503" lon="-0.1155">
        <ele>996.063232</ele>
        <time>2011-12-31T13:25:00Z</time>
      </trkpt>
      <trkpt lat="42.88489" lon="-0.11535">
        <ele>996.543945</ele>
        <time>2011-12-31T13:25:20Z</time>
      </trkpt>
      <trkpt lat="42.88485" lon="-0.11527">
        <ele>997.024414</ele>
        <time>2011-12-31T13:25:27Z</time>
      </trkpt>
      <trkpt lat="42.88478" lon="-0.11507">
        <ele>997.505127</ele>
        <time>2011-12-31T13:25:43Z</time>
      </trkpt>
      <trkpt lat="42.88472" lon="-0.11491">
        <ele>998.947021</ele>
        <time>2011-12-31T13:25:58Z</time>
      </trkpt>
      <trkpt lat="42.88467" lon="-0.11474">
        <ele>1000.38916</ele>
        <time>2011-12-31T13:26:12Z</time>
      </trkpt>
      <trkpt lat="42.88457" lon="-0.11453">
        <ele>1001.831055</ele>
        <time>2011-12-31T13:26:27Z</time>
      </trkpt>
      <trkpt lat="42.8845" lon="-0.11436">
        <ele>1002.311523</ele>
        <time>2011-12-31T13:26:43Z</time>
      </trkpt>
      <trkpt lat="42.88441" lon="-0.11428">
        <ele>1002.311523</ele>
        <time>2011-12-31T13:26:58Z</time>
      </trkpt>
      <trkpt lat="42.88428" lon="-0.11419">
        <ele>1003.272949</ele>
        <time>2011-12-31T13:27:13Z</time>
      </trkpt>
      <trkpt lat="42.88413" lon="-0.11412">
        <ele>1004.234619</ele>
        <time>2011-12-31T13:27:28Z</time>
      </trkpt>
      <trkpt lat="42.88408" lon="-0.11406">
        <ele>1005.195801</ele>
        <time>2011-12-31T13:27:35Z</time>
      </trkpt>
      <trkpt lat="42.88396" lon="-0.11396">
        <ele>1006.156982</ele>
        <time>2011-12-31T13:27:51Z</time>
      </trkpt>
      <trkpt lat="42.88383" lon="-0.11386">
        <ele>1006.637695</ele>
        <time>2011-12-31T13:28:06Z</time>
      </trkpt>
      <trkpt lat="42.88372" lon="-0.11368">
        <ele>1007.599121</ele>
        <time>2011-12-31T13:28:25Z</time>
      </trkpt>
      <trkpt lat="42.88368" lon="-0.11361">
        <ele>1008.079834</ele>
        <time>2011-12-31T13:28:34Z</time>
      </trkpt>
      <trkpt lat="42.88356" lon="-0.1135">
        <ele>1009.521729</ele>
        <time>2011-12-31T13:28:48Z</time>
      </trkpt>
      <trkpt lat="42.88344" lon="-0.11348">
        <ele>1009.041016</ele>
        <time>2011-12-31T13:28:59Z</time>
      </trkpt>
      <trkpt lat="42.8833" lon="-0.11331">
        <ele>1010.002197</ele>
        <time>2011-12-31T13:29:14Z</time>
      </trkpt>
      <trkpt lat="42.8832" lon="-0.1133">
        <ele>1010.48291</ele>
        <time>2011-12-31T13:29:26Z</time>
      </trkpt>
      <trkpt lat="42.88306" lon="-0.11328">
        <ele>1012.405518</ele>
        <time>2011-12-31T13:29:40Z</time>
      </trkpt>
      <trkpt lat="42.88296" lon="-0.11327">
        <ele>1012.405518</ele>
        <time>2011-12-31T13:29:53Z</time>
      </trkpt>
      <trkpt lat="42.88289" lon="-0.11324">
        <ele>1012.88623</ele>
        <time>2011-12-31T13:30:02Z</time>
      </trkpt>
      <trkpt lat="42.8828" lon="-0.11321">
        <ele>1012.88623</ele>
        <time>2011-12-31T13:30:12Z</time>
      </trkpt>
      <trkpt lat="42.88268" lon="-0.11315">
        <ele>1012.88623</ele>
        <time>2011-12-31T13:30:24Z</time>
      </trkpt>
      <trkpt lat="42.8825" lon="-0.11309">
        <ele>1012.88623</ele>
        <time>2011-12-31T13:30:38Z</time>
      </trkpt>
      <trkpt lat="42.88237" lon="-0.11303">
        <ele>1013.847412</ele>
        <time>2011-12-31T13:30:48Z</time>
      </trkpt>
      <trkpt lat="42.88225" lon="-0.11303">
        <ele>1015.770264</ele>
        <time>2011-12-31T13:31:02Z</time>
      </trkpt>
      <trkpt lat="42.88215" lon="-0.11301">
        <ele>1016.731445</ele>
        <time>2011-12-31T13:31:11Z</time>
      </trkpt>
      <trkpt lat="42.88204" lon="-0.11297">
        <ele>1018.654053</ele>
        <time>2011-12-31T13:31:22Z</time>
      </trkpt>
      <trkpt lat="42.88186" lon="-0.11283">
        <ele>1019.134766</ele>
        <time>2011-12-31T13:31:37Z</time>
      </trkpt>
      <trkpt lat="42.88176" lon="-0.11284">
        <ele>1020.096191</ele>
        <time>2011-12-31T13:31:47Z</time>
      </trkpt>
      <trkpt lat="42.88159" lon="-0.11294">
        <ele>1020.576904</ele>
        <time>2011-12-31T13:32:02Z</time>
      </trkpt>
      <trkpt lat="42.8815" lon="-0.11287">
        <ele>1020.576904</ele>
        <time>2011-12-31T13:32:13Z</time>
      </trkpt>
      <trkpt lat="42.88143" lon="-0.11281">
        <ele>1020.576904</ele>
        <time>2011-12-31T13:32:22Z</time>
      </trkpt>
      <trkpt lat="42.88131" lon="-0.11278">
        <ele>1020.576904</ele>
        <time>2011-12-31T13:32:33Z</time>
      </trkpt>
      <trkpt lat="42.88128" lon="-0.11274">
        <ele>1021.057617</ele>
        <time>2011-12-31T13:32:36Z</time>
      </trkpt>
      <trkpt lat="42.88125" lon="-0.11271">
        <ele>1021.538086</ele>
        <time>2011-12-31T13:32:38Z</time>
      </trkpt>
      <trkpt lat="42.88116" lon="-0.11263">
        <ele>1022.499512</ele>
        <time>2011-12-31T13:32:48Z</time>
      </trkpt>
      <trkpt lat="42.88103" lon="-0.1126">
        <ele>1023.460938</ele>
        <time>2011-12-31T13:33:04Z</time>
      </trkpt>
      <trkpt lat="42.88101" lon="-0.11253">
        <ele>1023.460938</ele>
        <time>2011-12-31T13:33:31Z</time>
      </trkpt>
      <trkpt lat="42.88091" lon="-0.11259">
        <ele>1023.460938</ele>
        <time>2011-12-31T13:33:39Z</time>
      </trkpt>
      <trkpt lat="42.88077" lon="-0.11269">
        <ele>1023.941406</ele>
        <time>2011-12-31T13:33:51Z</time>
      </trkpt>
      <trkpt lat="42.88064" lon="-0.11265">
        <ele>1025.383301</ele>
        <time>2011-12-31T13:34:03Z</time>
      </trkpt>
      <trkpt lat="42.88055" lon="-0.11252">
        <ele>1026.344727</ele>
        <time>2011-12-31T13:34:14Z</time>
      </trkpt>
      <trkpt lat="42.88042" lon="-0.11254">
        <ele>1026.344727</ele>
        <time>2011-12-31T13:34:25Z</time>
      </trkpt>
      <trkpt lat="42.88032" lon="-0.11259">
        <ele>1027.786621</ele>
        <time>2011-12-31T13:34:35Z</time>
      </trkpt>
      <trkpt lat="42.88023" lon="-0.11259">
        <ele>1027.786621</ele>
        <time>2011-12-31T13:34:43Z</time>
      </trkpt>
      <trkpt lat="42.88" lon="-0.11263">
        <ele>1028.267334</ele>
        <time>2011-12-31T13:34:55Z</time>
      </trkpt>
      <trkpt lat="42.87983" lon="-0.11266">
        <ele>1029.228516</ele>
        <time>2011-12-31T13:35:10Z</time>
      </trkpt>
      <trkpt lat="42.87958" lon="-0.11264">
        <ele>1029.709229</ele>
        <time>2011-12-31T13:35:29Z</time>
      </trkpt>
      <trkpt lat="42.87949" lon="-0.11262">
        <ele>1030.670654</ele>
        <time>2011-12-31T13:35:41Z</time>
      </trkpt>
      <trkpt lat="42.87944" lon="-0.11252">
        <ele>1032.112549</ele>
        <time>2011-12-31T13:35:53Z</time>
      </trkpt>
      <trkpt lat="42.87932" lon="-0.11246">
        <ele>1032.112549</ele>
        <time>2011-12-31T13:36:03Z</time>
      </trkpt>
      <trkpt lat="42.87919" lon="-0.11236">
        <ele>1033.07373</ele>
        <time>2011-12-31T13:36:13Z</time>
      </trkpt>
      <trkpt lat="42.87918" lon="-0.11235">
        <ele>1033.07373</ele>
        <time>2011-12-31T13:36:14Z</time>
      </trkpt>
      <trkpt lat="42.87911" lon="-0.11227">
        <ele>1033.07373</ele>
        <time>2011-12-31T13:36:23Z</time>
      </trkpt>
      <trkpt lat="42.87899" lon="-0.11226">
        <ele>1034.515869</ele>
        <time>2011-12-31T13:36:39Z</time>
      </trkpt>
      <trkpt lat="42.87896" lon="-0.11217">
        <ele>1034.996582</ele>
        <time>2011-12-31T13:36:50Z</time>
      </trkpt>
      <trkpt lat="42.87887" lon="-0.11208">
        <ele>1035.477051</ele>
        <time>2011-12-31T13:37:01Z</time>
      </trkpt>
      <trkpt lat="42.87882" lon="-0.112">
        <ele>1036.438721</ele>
        <time>2011-12-31T13:37:10Z</time>
      </trkpt>
      <trkpt lat="42.87879" lon="-0.11195">
        <ele>1036.919189</ele>
        <time>2011-12-31T13:37:21Z</time>
      </trkpt>
      <trkpt lat="42.87874" lon="-0.11188">
        <ele>1037.399902</ele>
        <time>2011-12-31T13:37:30Z</time>
      </trkpt>
      <trkpt lat="42.8786" lon="-0.11184">
        <ele>1037.880615</ele>
        <time>2011-12-31T13:37:41Z</time>
      </trkpt>
      <trkpt lat="42.87849" lon="-0.11177">
        <ele>1038.361328</ele>
        <time>2011-12-31T13:37:52Z</time>
      </trkpt>
      <trkpt lat="42.87845" lon="-0.11176">
        <ele>1037.880615</ele>
        <time>2011-12-31T13:37:54Z</time>
      </trkpt>
      <trkpt lat="42.8784" lon="-0.11172">
        <ele>1038.361328</ele>
        <time>2011-12-31T13:37:59Z</time>
      </trkpt>
      <trkpt lat="42.87831" lon="-0.11156">
        <ele>1039.803223</ele>
        <time>2011-12-31T13:38:11Z</time>
      </trkpt>
      <trkpt lat="42.87823" lon="-0.11145">
        <ele>1040.283936</ele>
        <time>2011-12-31T13:38:20Z</time>
      </trkpt>
      <trkpt lat="42.8781" lon="-0.11134">
        <ele>1040.764404</ele>
        <time>2011-12-31T13:38:35Z</time>
      </trkpt>
      <trkpt lat="42.87809" lon="-0.11133">
        <ele>1040.283936</ele>
        <time>2011-12-31T13:38:36Z</time>
      </trkpt>
      <trkpt lat="42.87801" lon="-0.11121">
        <ele>1041.245117</ele>
        <time>2011-12-31T13:38:47Z</time>
      </trkpt>
      <trkpt lat="42.87792" lon="-0.11114">
        <ele>1041.245117</ele>
        <time>2011-12-31T13:38:55Z</time>
      </trkpt>
      <trkpt lat="42.87783" lon="-0.11111">
        <ele>1041.72583</ele>
        <time>2011-12-31T13:39:02Z</time>
      </trkpt>
      <trkpt lat="42.87774" lon="-0.111">
        <ele>1043.167725</ele>
        <time>2011-12-31T13:39:14Z</time>
      </trkpt>
      <trkpt lat="42.87764" lon="-0.11093">
        <ele>1044.12915</ele>
        <time>2011-12-31T13:39:26Z</time>
      </trkpt>
      <trkpt lat="42.87754" lon="-0.11085">
        <ele>1044.609619</ele>
        <time>2011-12-31T13:39:38Z</time>
      </trkpt>
      <trkpt lat="42.87742" lon="-0.11082">
        <ele>1045.090332</ele>
        <time>2011-12-31T13:39:49Z</time>
      </trkpt>
      <trkpt lat="42.87727" lon="-0.11068">
        <ele>1045.090332</ele>
        <time>2011-12-31T13:40:04Z</time>
      </trkpt>
      <trkpt lat="42.87712" lon="-0.1105">
        <ele>1045.090332</ele>
        <time>2011-12-31T13:40:19Z</time>
      </trkpt>
      <trkpt lat="42.87702" lon="-0.11042">
        <ele>1045.571045</ele>
        <time>2011-12-31T13:40:32Z</time>
      </trkpt>
      <trkpt lat="42.87697" lon="-0.11042">
        <ele>1045.571045</ele>
        <time>2011-12-31T13:40:36Z</time>
      </trkpt>
      <trkpt lat="42.87686" lon="-0.11041">
        <ele>1046.532471</ele>
        <time>2011-12-31T13:40:47Z</time>
      </trkpt>
      <trkpt lat="42.8767" lon="-0.11037">
        <ele>1047.493652</ele>
        <time>2011-12-31T13:40:59Z</time>
      </trkpt>
      <trkpt lat="42.87664" lon="-0.11033">
        <ele>1047.974365</ele>
        <time>2011-12-31T13:41:06Z</time>
      </trkpt>
      <trkpt lat="42.8766" lon="-0.11031">
        <ele>1047.974365</ele>
        <time>2011-12-31T13:41:09Z</time>
      </trkpt>
      <trkpt lat="42.87648" lon="-0.11028">
        <ele>1048.454834</ele>
        <time>2011-12-31T13:41:18Z</time>
      </trkpt>
      <trkpt lat="42.87641" lon="-0.1102">
        <ele>1049.41626</ele>
        <time>2011-12-31T13:41:40Z</time>
      </trkpt>
      <trkpt lat="42.87632" lon="-0.11017">
        <ele>1050.377686</ele>
        <time>2011-12-31T13:41:51Z</time>
      </trkpt>
      <trkpt lat="42.87615" lon="-0.11016">
        <ele>1051.338867</ele>
        <time>2011-12-31T13:42:08Z</time>
      </trkpt>
      <trkpt lat="42.87603" lon="-0.11012">
        <ele>1050.858154</ele>
        <time>2011-12-31T13:42:19Z</time>
      </trkpt>
      <trkpt lat="42.87599" lon="-0.11005">
        <ele>1051.338867</ele>
        <time>2011-12-31T13:42:32Z</time>
      </trkpt>
      <trkpt lat="42.87599" lon="-0.10995">
        <ele>1051.338867</ele>
        <time>2011-12-31T13:42:40Z</time>
      </trkpt>
      <trkpt lat="42.87597" lon="-0.10986">
        <ele>1050.858154</ele>
        <time>2011-12-31T13:42:57Z</time>
      </trkpt>
      <trkpt lat="42.87594" lon="-0.10987">
        <ele>1051.338867</ele>
        <time>2011-12-31T13:43:01Z</time>
      </trkpt>
      <trkpt lat="42.87583" lon="-0.10986">
        <ele>1051.338867</ele>
        <time>2011-12-31T13:43:11Z</time>
      </trkpt>
      <trkpt lat="42.87577" lon="-0.10984">
        <ele>1051.338867</ele>
        <time>2011-12-31T13:43:22Z</time>
      </trkpt>
      <trkpt lat="42.87569" lon="-0.10982">
        <ele>1052.781006</ele>
        <time>2011-12-31T13:43:31Z</time>
      </trkpt>
      <trkpt lat="42.87565" lon="-0.10974">
        <ele>1052.300293</ele>
        <time>2011-12-31T13:43:43Z</time>
      </trkpt>
      <trkpt lat="42.87562" lon="-0.10974">
        <ele>1052.781006</ele>
        <time>2011-12-31T13:43:47Z</time>
      </trkpt>
      <trkpt lat="42.87546" lon="-0.10973">
        <ele>1052.781006</ele>
        <time>2011-12-31T13:44:02Z</time>
      </trkpt>
      <trkpt lat="42.87542" lon="-0.10974">
        <ele>1052.300293</ele>
        <time>2011-12-31T13:44:04Z</time>
      </trkpt>
      <trkpt lat="42.87538" lon="-0.10968">
        <ele>1052.300293</ele>
        <time>2011-12-31T13:44:23Z</time>
      </trkpt>
      <trkpt lat="42.87523" lon="-0.10974">
        <ele>1052.300293</ele>
        <time>2011-12-31T13:44:33Z</time>
      </trkpt>
      <trkpt lat="42.87511" lon="-0.10975">
        <ele>1052.300293</ele>
        <time>2011-12-31T13:44:52Z</time>
      </trkpt>
      <trkpt lat="42.87508" lon="-0.10976">
        <ele>1052.781006</ele>
        <time>2011-12-31T13:45:05Z</time>
      </trkpt>
      <trkpt lat="42.87492" lon="-0.10979">
        <ele>1052.781006</ele>
        <time>2011-12-31T13:45:20Z</time>
      </trkpt>
      <trkpt lat="42.87476" lon="-0.10987">
        <ele>1052.781006</ele>
        <time>2011-12-31T13:45:38Z</time>
      </trkpt>
      <trkpt lat="42.87475" lon="-0.10989">
        <ele>1052.781006</ele>
        <time>2011-12-31T13:45:40Z</time>
      </trkpt>
      <trkpt lat="42.87455" lon="-0.10994">
        <ele>1053.261719</ele>
        <time>2011-12-31T13:45:59Z</time>
      </trkpt>
      <trkpt lat="42.87447" lon="-0.11005">
        <ele>1053.261719</ele>
        <time>2011-12-31T13:46:05Z</time>
      </trkpt>
      <trkpt lat="42.87439" lon="-0.11">
        <ele>1053.742432</ele>
        <time>2011-12-31T13:46:10Z</time>
      </trkpt>
      <trkpt lat="42.87425" lon="-0.10997">
        <ele>1052.781006</ele>
        <time>2011-12-31T13:46:19Z</time>
      </trkpt>
      <trkpt lat="42.87407" lon="-0.10989">
        <ele>1052.300293</ele>
        <time>2011-12-31T13:46:33Z</time>
      </trkpt>
      <trkpt lat="42.87402" lon="-0.10979">
        <ele>1051.338867</ele>
        <time>2011-12-31T13:46:38Z</time>
      </trkpt>
      <trkpt lat="42.87397" lon="-0.10966">
        <ele>1053.742432</ele>
        <time>2011-12-31T13:46:57Z</time>
      </trkpt>
      <trkpt lat="42.87395" lon="-0.10965">
        <ele>1054.703613</ele>
        <time>2011-12-31T13:46:59Z</time>
      </trkpt>
      <trkpt lat="42.87387" lon="-0.10955">
        <ele>1055.665039</ele>
        <time>2011-12-31T13:47:13Z</time>
      </trkpt>
      <trkpt lat="42.87376" lon="-0.10939">
        <ele>1055.665039</ele>
        <time>2011-12-31T13:47:30Z</time>
      </trkpt>
      <trkpt lat="42.87375" lon="-0.10939">
        <ele>1056.145508</ele>
        <time>2011-12-31T13:47:31Z</time>
      </trkpt>
      <trkpt lat="42.8736" lon="-0.10935">
        <ele>1056.145508</ele>
        <time>2011-12-31T13:47:47Z</time>
      </trkpt>
      <trkpt lat="42.87353" lon="-0.10928">
        <ele>1055.665039</ele>
        <time>2011-12-31T13:47:55Z</time>
      </trkpt>
      <trkpt lat="42.87347" lon="-0.10931">
        <ele>1057.106934</ele>
        <time>2011-12-31T13:47:59Z</time>
      </trkpt>
      <trkpt lat="42.8733" lon="-0.10923">
        <ele>1056.626221</ele>
        <time>2011-12-31T13:48:16Z</time>
      </trkpt>
      <trkpt lat="42.87307" lon="-0.1093">
        <ele>1056.626221</ele>
        <time>2011-12-31T13:48:37Z</time>
      </trkpt>
      <trkpt lat="42.87289" lon="-0.10941">
        <ele>1057.106934</ele>
        <time>2011-12-31T13:48:57Z</time>
      </trkpt>
      <trkpt lat="42.87271" lon="-0.10952">
        <ele>1057.106934</ele>
        <time>2011-12-31T13:49:14Z</time>
      </trkpt>
      <trkpt lat="42.87265" lon="-0.10954">
        <ele>1057.106934</ele>
        <time>2011-12-31T13:49:19Z</time>
      </trkpt>
      <trkpt lat="42.87249" lon="-0.10956">
        <ele>1056.626221</ele>
        <time>2011-12-31T13:49:35Z</time>
      </trkpt>
      <trkpt lat="42.87236" lon="-0.10961">
        <ele>1057.106934</ele>
        <time>2011-12-31T13:49:48Z</time>
      </trkpt>
      <trkpt lat="42.8723" lon="-0.1096">
        <ele>1057.587646</ele>
        <time>2011-12-31T13:49:53Z</time>
      </trkpt>
      <trkpt lat="42.87223" lon="-0.10954">
        <ele>1057.587646</ele>
        <time>2011-12-31T13:50:06Z</time>
      </trkpt>
      <trkpt lat="42.87213" lon="-0.10945">
        <ele>1058.068359</ele>
        <time>2011-12-31T13:50:22Z</time>
      </trkpt>
      <trkpt lat="42.87212" lon="-0.1093">
        <ele>1058.068359</ele>
        <time>2011-12-31T13:50:35Z</time>
      </trkpt>
      <trkpt lat="42.87213" lon="-0.10902">
        <ele>1059.029541</ele>
        <time>2011-12-31T13:50:58Z</time>
      </trkpt>
      <trkpt lat="42.87212" lon="-0.109">
        <ele>1059.510254</ele>
        <time>2011-12-31T13:51:06Z</time>
      </trkpt>
      <trkpt lat="42.87214" lon="-0.10888">
        <ele>1059.510254</ele>
        <time>2011-12-31T13:51:13Z</time>
      </trkpt>
      <trkpt lat="42.87206" lon="-0.10872">
        <ele>1059.990723</ele>
        <time>2011-12-31T13:51:31Z</time>
      </trkpt>
      <trkpt lat="42.87203" lon="-0.10873">
        <ele>1060.952148</ele>
        <time>2011-12-31T13:51:44Z</time>
      </trkpt>
      <trkpt lat="42.87198" lon="-0.10871">
        <ele>1062.874756</ele>
        <time>2011-12-31T13:52:13Z</time>
      </trkpt>
      <trkpt lat="42.8719" lon="-0.10861">
        <ele>1064.31665</ele>
        <time>2011-12-31T13:52:27Z</time>
      </trkpt>
      <trkpt lat="42.87183" lon="-0.10848">
        <ele>1066.239258</ele>
        <time>2011-12-31T13:52:42Z</time>
      </trkpt>
      <trkpt lat="42.87176" lon="-0.10842">
        <ele>1069.123535</ele>
        <time>2011-12-31T13:52:57Z</time>
      </trkpt>
      <trkpt lat="42.87177" lon="-0.10829">
        <ele>1071.046143</ele>
        <time>2011-12-31T13:53:12Z</time>
      </trkpt>
      <trkpt lat="42.87172" lon="-0.10823">
        <ele>1072.96875</ele>
        <time>2011-12-31T13:53:26Z</time>
      </trkpt>
      <trkpt lat="42.87169" lon="-0.10816">
        <ele>1075.371826</ele>
        <time>2011-12-31T13:53:38Z</time>
      </trkpt>
      <trkpt lat="42.87164" lon="-0.10812">
        <ele>1076.333252</ele>
        <time>2011-12-31T13:53:53Z</time>
      </trkpt>
      <trkpt lat="42.87159" lon="-0.10807">
        <ele>1078.255859</ele>
        <time>2011-12-31T13:54:05Z</time>
      </trkpt>
      <trkpt lat="42.87159" lon="-0.108">
        <ele>1080.178467</ele>
        <time>2011-12-31T13:54:19Z</time>
      </trkpt>
      <trkpt lat="42.87157" lon="-0.10789">
        <ele>1081.139893</ele>
        <time>2011-12-31T13:54:33Z</time>
      </trkpt>
      <trkpt lat="42.87154" lon="-0.10778">
        <ele>1082.581787</ele>
        <time>2011-12-31T13:54:46Z</time>
      </trkpt>
      <trkpt lat="42.87148" lon="-0.10771">
        <ele>1084.023926</ele>
        <time>2011-12-31T13:55:03Z</time>
      </trkpt>
      <trkpt lat="42.87141" lon="-0.10767">
        <ele>1085.946533</ele>
        <time>2011-12-31T13:55:20Z</time>
      </trkpt>
      <trkpt lat="42.87137" lon="-0.10757">
        <ele>1088.830566</ele>
        <time>2011-12-31T13:55:33Z</time>
      </trkpt>
      <trkpt lat="42.87131" lon="-0.10761">
        <ele>1090.75293</ele>
        <time>2011-12-31T13:55:47Z</time>
      </trkpt>
      <trkpt lat="42.87125" lon="-0.10759">
        <ele>1094.117676</ele>
        <time>2011-12-31T13:56:01Z</time>
      </trkpt>
      <trkpt lat="42.87117" lon="-0.10761">
        <ele>1096.520996</ele>
        <time>2011-12-31T13:56:14Z</time>
      </trkpt>
      <trkpt lat="42.87111" lon="-0.10751">
        <ele>1099.885498</ele>
        <time>2011-12-31T13:56:30Z</time>
      </trkpt>
      <trkpt lat="42.87108" lon="-0.10744">
        <ele>1100.846924</ele>
        <time>2011-12-31T13:56:41Z</time>
      </trkpt>
      <trkpt lat="42.87108" lon="-0.10735">
        <ele>1101.327637</ele>
        <time>2011-12-31T13:56:51Z</time>
      </trkpt>
      <trkpt lat="42.87106" lon="-0.10721">
        <ele>1103.730957</ele>
        <time>2011-12-31T13:57:04Z</time>
      </trkpt>
      <trkpt lat="42.87106" lon="-0.1071">
        <ele>1103.250244</ele>
        <time>2011-12-31T13:57:16Z</time>
      </trkpt>
      <trkpt lat="42.8711" lon="-0.107">
        <ele>1102.769531</ele>
        <time>2011-12-31T13:57:26Z</time>
      </trkpt>
      <trkpt lat="42.87112" lon="-0.10689">
        <ele>1102.288818</ele>
        <time>2011-12-31T13:57:39Z</time>
      </trkpt>
      <trkpt lat="42.87114" lon="-0.10696">
        <ele>1103.730957</ele>
        <time>2011-12-31T13:58:05Z</time>
      </trkpt>
      <trkpt lat="42.87118" lon="-0.10696">
        <ele>1103.250244</ele>
        <time>2011-12-31T13:58:35Z</time>
      </trkpt>
      <trkpt lat="42.87109" lon="-0.10695">
        <ele>1102.769531</ele>
        <time>2011-12-31T13:58:59Z</time>
      </trkpt>
      <trkpt lat="42.87117" lon="-0.10685">
        <ele>1102.288818</ele>
        <time>2011-12-31T13:59:14Z</time>
      </trkpt>
      <trkpt lat="42.87126" lon="-0.10681">
        <ele>1103.250244</ele>
        <time>2011-12-31T13:59:29Z</time>
      </trkpt>
      <trkpt lat="42.87137" lon="-0.10683">
        <ele>1105.653564</ele>
        <time>2011-12-31T13:59:40Z</time>
      </trkpt>
      <trkpt lat="42.87146" lon="-0.10682">
        <ele>1107.576172</ele>
        <time>2011-12-31T13:59:51Z</time>
      </trkpt>
      <trkpt lat="42.87152" lon="-0.10687">
        <ele>1107.576172</ele>
        <time>2011-12-31T14:00:01Z</time>
      </trkpt>
      <trkpt lat="42.87165" lon="-0.10687">
        <ele>1108.056885</ele>
        <time>2011-12-31T14:00:11Z</time>
      </trkpt>
      <trkpt lat="42.87178" lon="-0.10686">
        <ele>1108.056885</ele>
        <time>2011-12-31T14:00:25Z</time>
      </trkpt>
      <trkpt lat="42.87191" lon="-0.10681">
        <ele>1109.979248</ele>
        <time>2011-12-31T14:00:38Z</time>
      </trkpt>
      <trkpt lat="42.872" lon="-0.10675">
        <ele>1111.9021</ele>
        <time>2011-12-31T14:00:53Z</time>
      </trkpt>
      <trkpt lat="42.87193" lon="-0.10678">
        <ele>1113.824463</ele>
        <time>2011-12-31T14:01:04Z</time>
      </trkpt>
      <trkpt lat="42.87201" lon="-0.1067">
        <ele>1115.266602</ele>
        <time>2011-12-31T14:01:15Z</time>
      </trkpt>
      <trkpt lat="42.87206" lon="-0.1066">
        <ele>1117.669922</ele>
        <time>2011-12-31T14:01:28Z</time>
      </trkpt>
      <trkpt lat="42.87213" lon="-0.10647">
        <ele>1119.592773</ele>
        <time>2011-12-31T14:01:44Z</time>
      </trkpt>
      <trkpt lat="42.87215" lon="-0.10642">
        <ele>1121.034668</ele>
        <time>2011-12-31T14:01:49Z</time>
      </trkpt>
      <trkpt lat="42.87223" lon="-0.10633">
        <ele>1123.437988</ele>
        <time>2011-12-31T14:02:02Z</time>
      </trkpt>
      <trkpt lat="42.87228" lon="-0.10625">
        <ele>1125.360352</ele>
        <time>2011-12-31T14:02:14Z</time>
      </trkpt>
      <trkpt lat="42.87235" lon="-0.10617">
        <ele>1127.763672</ele>
        <time>2011-12-31T14:02:27Z</time>
      </trkpt>
      <trkpt lat="42.87227" lon="-0.10617">
        <ele>1129.686279</ele>
        <time>2011-12-31T14:02:40Z</time>
      </trkpt>
      <trkpt lat="42.87216" lon="-0.10618">
        <ele>1131.608887</ele>
        <time>2011-12-31T14:02:58Z</time>
      </trkpt>
      <trkpt lat="42.87206" lon="-0.10621">
        <ele>1135.454346</ele>
        <time>2011-12-31T14:03:17Z</time>
      </trkpt>
      <trkpt lat="42.87198" lon="-0.10624">
        <ele>1136.89624</ele>
        <time>2011-12-31T14:03:27Z</time>
      </trkpt>
      <trkpt lat="42.87187" lon="-0.10624">
        <ele>1138.338379</ele>
        <time>2011-12-31T14:03:43Z</time>
      </trkpt>
      <trkpt lat="42.87179" lon="-0.10621">
        <ele>1141.222168</ele>
        <time>2011-12-31T14:03:55Z</time>
      </trkpt>
      <trkpt lat="42.87173" lon="-0.10619">
        <ele>1143.144775</ele>
        <time>2011-12-31T14:04:05Z</time>
      </trkpt>
      <trkpt lat="42.87167" lon="-0.10614">
        <ele>1143.625488</ele>
        <time>2011-12-31T14:04:16Z</time>
      </trkpt>
      <trkpt lat="42.87171" lon="-0.10608">
        <ele>1146.028809</ele>
        <time>2011-12-31T14:04:26Z</time>
      </trkpt>
      <trkpt lat="42.87184" lon="-0.10599">
        <ele>1148.912842</ele>
        <time>2011-12-31T14:04:41Z</time>
      </trkpt>
      <trkpt lat="42.87193" lon="-0.10593">
        <ele>1151.316162</ele>
        <time>2011-12-31T14:04:54Z</time>
      </trkpt>
      <trkpt lat="42.87199" lon="-0.10585">
        <ele>1151.796875</ele>
        <time>2011-12-31T14:05:06Z</time>
      </trkpt>
      <trkpt lat="42.87208" lon="-0.10576">
        <ele>1154.680664</ele>
        <time>2011-12-31T14:05:19Z</time>
      </trkpt>
      <trkpt lat="42.87213" lon="-0.10578">
        <ele>1156.603271</ele>
        <time>2011-12-31T14:05:30Z</time>
      </trkpt>
      <trkpt lat="42.87223" lon="-0.10571">
        <ele>1159.006592</ele>
        <time>2011-12-31T14:05:43Z</time>
      </trkpt>
      <trkpt lat="42.87218" lon="-0.10584">
        <ele>1159.487305</ele>
        <time>2011-12-31T14:06:07Z</time>
      </trkpt>
      <trkpt lat="42.87237" lon="-0.10572">
        <ele>1159.006592</ele>
        <time>2011-12-31T14:07:13Z</time>
      </trkpt>
      <trkpt lat="42.87249" lon="-0.10568">
        <ele>1158.525879</ele>
        <time>2011-12-31T14:07:25Z</time>
      </trkpt>
      <trkpt lat="42.8726" lon="-0.10566">
        <ele>1158.525879</ele>
        <time>2011-12-31T14:07:35Z</time>
      </trkpt>
      <trkpt lat="42.87275" lon="-0.10564">
        <ele>1158.04541</ele>
        <time>2011-12-31T14:07:51Z</time>
      </trkpt>
      <trkpt lat="42.87283" lon="-0.10565">
        <ele>1157.564697</ele>
        <time>2011-12-31T14:08:00Z</time>
      </trkpt>
      <trkpt lat="42.87294" lon="-0.10568">
        <ele>1157.564697</ele>
        <time>2011-12-31T14:08:11Z</time>
      </trkpt>
      <trkpt lat="42.87306" lon="-0.10574">
        <ele>1157.564697</ele>
        <time>2011-12-31T14:08:24Z</time>
      </trkpt>
      <trkpt lat="42.87323" lon="-0.10574">
        <ele>1157.564697</ele>
        <time>2011-12-31T14:08:37Z</time>
      </trkpt>
      <trkpt lat="42.87337" lon="-0.10578">
        <ele>1157.083984</ele>
        <time>2011-12-31T14:08:50Z</time>
      </trkpt>
      <trkpt lat="42.87339" lon="-0.10577">
        <ele>1156.603271</ele>
        <time>2011-12-31T14:08:53Z</time>
      </trkpt>
      <trkpt lat="42.8735" lon="-0.10576">
        <ele>1156.122559</ele>
        <time>2011-12-31T14:09:06Z</time>
      </trkpt>
      <trkpt lat="42.87352" lon="-0.10574">
        <ele>1156.122559</ele>
        <time>2011-12-31T14:09:08Z</time>
      </trkpt>
      <trkpt lat="42.87362" lon="-0.10557">
        <ele>1153.23877</ele>
        <time>2011-12-31T14:09:23Z</time>
      </trkpt>
      <trkpt lat="42.87372" lon="-0.10558">
        <ele>1152.277344</ele>
        <time>2011-12-31T14:09:37Z</time>
      </trkpt>
      <trkpt lat="42.87374" lon="-0.10562">
        <ele>1151.796875</ele>
        <time>2011-12-31T14:09:41Z</time>
      </trkpt>
      <trkpt lat="42.87387" lon="-0.10576">
        <ele>1150.835449</ele>
        <time>2011-12-31T14:09:56Z</time>
      </trkpt>
      <trkpt lat="42.87395" lon="-0.10576">
        <ele>1150.35498</ele>
        <time>2011-12-31T14:10:03Z</time>
      </trkpt>
      <trkpt lat="42.87409" lon="-0.10577">
        <ele>1148.912842</ele>
        <time>2011-12-31T14:10:17Z</time>
      </trkpt>
      <trkpt lat="42.8742" lon="-0.10586">
        <ele>1147.951416</ele>
        <time>2011-12-31T14:10:31Z</time>
      </trkpt>
      <trkpt lat="42.87421" lon="-0.10587">
        <ele>1147.951416</ele>
        <time>2011-12-31T14:10:32Z</time>
      </trkpt>
      <trkpt lat="42.87439" lon="-0.1058">
        <ele>1147.470703</ele>
        <time>2011-12-31T14:10:46Z</time>
      </trkpt>
      <trkpt lat="42.87447" lon="-0.10581">
        <ele>1145.548096</ele>
        <time>2011-12-31T14:10:56Z</time>
      </trkpt>
      <trkpt lat="42.87457" lon="-0.10584">
        <ele>1146.028809</ele>
        <time>2011-12-31T14:11:09Z</time>
      </trkpt>
      <trkpt lat="42.87472" lon="-0.10579">
        <ele>1144.106201</ele>
        <time>2011-12-31T14:11:22Z</time>
      </trkpt>
      <trkpt lat="42.87483" lon="-0.10575">
        <ele>1143.625488</ele>
        <time>2011-12-31T14:11:33Z</time>
      </trkpt>
      <trkpt lat="42.87489" lon="-0.10588">
        <ele>1143.625488</ele>
        <time>2011-12-31T14:11:45Z</time>
      </trkpt>
      <trkpt lat="42.87495" lon="-0.10592">
        <ele>1143.625488</ele>
        <time>2011-12-31T14:11:59Z</time>
      </trkpt>
      <trkpt lat="42.87511" lon="-0.10599">
        <ele>1143.625488</ele>
        <time>2011-12-31T14:12:11Z</time>
      </trkpt>
      <trkpt lat="42.87528" lon="-0.10596">
        <ele>1144.106201</ele>
        <time>2011-12-31T14:12:23Z</time>
      </trkpt>
      <trkpt lat="42.8754" lon="-0.10601">
        <ele>1143.625488</ele>
        <time>2011-12-31T14:12:34Z</time>
      </trkpt>
      <trkpt lat="42.87554" lon="-0.10608">
        <ele>1141.702881</ele>
        <time>2011-12-31T14:12:46Z</time>
      </trkpt>
      <trkpt lat="42.87561" lon="-0.10608">
        <ele>1140.260986</ele>
        <time>2011-12-31T14:12:58Z</time>
      </trkpt>
      <trkpt lat="42.87573" lon="-0.10615">
        <ele>1139.299561</ele>
        <time>2011-12-31T14:13:10Z</time>
      </trkpt>
      <trkpt lat="42.87581" lon="-0.10619">
        <ele>1139.780273</ele>
        <time>2011-12-31T14:13:20Z</time>
      </trkpt>
      <trkpt lat="42.87593" lon="-0.1062">
        <ele>1139.299561</ele>
        <time>2011-12-31T14:13:32Z</time>
      </trkpt>
      <trkpt lat="42.87606" lon="-0.10613">
        <ele>1139.299561</ele>
        <time>2011-12-31T14:13:44Z</time>
      </trkpt>
      <trkpt lat="42.87607" lon="-0.10613">
        <ele>1139.780273</ele>
        <time>2011-12-31T14:13:45Z</time>
      </trkpt>
      <trkpt lat="42.87626" lon="-0.10599">
        <ele>1139.780273</ele>
        <time>2011-12-31T14:14:01Z</time>
      </trkpt>
      <trkpt lat="42.87636" lon="-0.10594">
        <ele>1139.780273</ele>
        <time>2011-12-31T14:14:15Z</time>
      </trkpt>
      <trkpt lat="42.8765" lon="-0.10589">
        <ele>1139.299561</ele>
        <time>2011-12-31T14:14:30Z</time>
      </trkpt>
      <trkpt lat="42.87654" lon="-0.1059">
        <ele>1139.299561</ele>
        <time>2011-12-31T14:14:35Z</time>
      </trkpt>
      <trkpt lat="42.87659" lon="-0.10605">
        <ele>1137.376953</ele>
        <time>2011-12-31T14:14:50Z</time>
      </trkpt>
      <trkpt lat="42.87665" lon="-0.10622">
        <ele>1134.012451</ele>
        <time>2011-12-31T14:15:05Z</time>
      </trkpt>
      <trkpt lat="42.87674" lon="-0.10639">
        <ele>1132.570557</ele>
        <time>2011-12-31T14:15:22Z</time>
      </trkpt>
      <trkpt lat="42.87685" lon="-0.10657">
        <ele>1131.128418</ele>
        <time>2011-12-31T14:15:40Z</time>
      </trkpt>
      <trkpt lat="42.87695" lon="-0.10661">
        <ele>1129.205566</ele>
        <time>2011-12-31T14:15:52Z</time>
      </trkpt>
      <trkpt lat="42.87704" lon="-0.10662">
        <ele>1128.244385</ele>
        <time>2011-12-31T14:16:03Z</time>
      </trkpt>
      <trkpt lat="42.87707" lon="-0.10662">
        <ele>1127.283203</ele>
        <time>2011-12-31T14:16:05Z</time>
      </trkpt>
      <trkpt lat="42.8772" lon="-0.10672">
        <ele>1126.80249</ele>
        <time>2011-12-31T14:16:18Z</time>
      </trkpt>
      <trkpt lat="42.8773" lon="-0.10676">
        <ele>1125.360352</ele>
        <time>2011-12-31T14:16:29Z</time>
      </trkpt>
      <trkpt lat="42.87738" lon="-0.10683">
        <ele>1124.879883</ele>
        <time>2011-12-31T14:16:38Z</time>
      </trkpt>
      <trkpt lat="42.87749" lon="-0.10687">
        <ele>1124.39917</ele>
        <time>2011-12-31T14:16:50Z</time>
      </trkpt>
      <trkpt lat="42.87752" lon="-0.10687">
        <ele>1123.918457</ele>
        <time>2011-12-31T14:16:52Z</time>
      </trkpt>
      <trkpt lat="42.87762" lon="-0.10686">
        <ele>1123.918457</ele>
        <time>2011-12-31T14:17:06Z</time>
      </trkpt>
      <trkpt lat="42.8777" lon="-0.10692">
        <ele>1121.99585</ele>
        <time>2011-12-31T14:17:20Z</time>
      </trkpt>
      <trkpt lat="42.87781" lon="-0.10698">
        <ele>1121.034668</ele>
        <time>2011-12-31T14:17:30Z</time>
      </trkpt>
      <trkpt lat="42.8779" lon="-0.10715">
        <ele>1119.592773</ele>
        <time>2011-12-31T14:17:43Z</time>
      </trkpt>
      <trkpt lat="42.87801" lon="-0.10721">
        <ele>1120.073242</ele>
        <time>2011-12-31T14:17:54Z</time>
      </trkpt>
      <trkpt lat="42.87815" lon="-0.10729">
        <ele>1118.631348</ele>
        <time>2011-12-31T14:18:07Z</time>
      </trkpt>
      <trkpt lat="42.87827" lon="-0.10747">
        <ele>1117.189453</ele>
        <time>2011-12-31T14:18:20Z</time>
      </trkpt>
      <trkpt lat="42.87836" lon="-0.10751">
        <ele>1116.228027</ele>
        <time>2011-12-31T14:18:30Z</time>
      </trkpt>
      <trkpt lat="42.87849" lon="-0.10754">
        <ele>1116.228027</ele>
        <time>2011-12-31T14:18:43Z</time>
      </trkpt>
      <trkpt lat="42.87859" lon="-0.10757">
        <ele>1115.266602</ele>
        <time>2011-12-31T14:18:56Z</time>
      </trkpt>
      <trkpt lat="42.87869" lon="-0.10756">
        <ele>1114.305176</ele>
        <time>2011-12-31T14:19:10Z</time>
      </trkpt>
      <trkpt lat="42.87877" lon="-0.10755">
        <ele>1112.863281</ele>
        <time>2011-12-31T14:19:17Z</time>
      </trkpt>
      <trkpt lat="42.87881" lon="-0.10757">
        <ele>1113.824463</ele>
        <time>2011-12-31T14:19:21Z</time>
      </trkpt>
      <trkpt lat="42.87892" lon="-0.10758">
        <ele>1113.343994</ele>
        <time>2011-12-31T14:19:34Z</time>
      </trkpt>
      <trkpt lat="42.87908" lon="-0.1076">
        <ele>1112.863281</ele>
        <time>2011-12-31T14:19:46Z</time>
      </trkpt>
      <trkpt lat="42.87923" lon="-0.10764">
        <ele>1111.9021</ele>
        <time>2011-12-31T14:19:58Z</time>
      </trkpt>
      <trkpt lat="42.8794" lon="-0.10772">
        <ele>1110.940674</ele>
        <time>2011-12-31T14:20:15Z</time>
      </trkpt>
      <trkpt lat="42.87952" lon="-0.10775">
        <ele>1110.459961</ele>
        <time>2011-12-31T14:20:28Z</time>
      </trkpt>
      <trkpt lat="42.87963" lon="-0.1078">
        <ele>1109.018066</ele>
        <time>2011-12-31T14:20:40Z</time>
      </trkpt>
      <trkpt lat="42.87974" lon="-0.10781">
        <ele>1108.537354</ele>
        <time>2011-12-31T14:20:50Z</time>
      </trkpt>
      <trkpt lat="42.87983" lon="-0.10792">
        <ele>1108.056885</ele>
        <time>2011-12-31T14:21:03Z</time>
      </trkpt>
      <trkpt lat="42.87994" lon="-0.10801">
        <ele>1106.614746</ele>
        <time>2011-12-31T14:21:16Z</time>
      </trkpt>
      <trkpt lat="42.88006" lon="-0.10804">
        <ele>1107.095459</ele>
        <time>2011-12-31T14:21:31Z</time>
      </trkpt>
      <trkpt lat="42.88013" lon="-0.10804">
        <ele>1106.614746</ele>
        <time>2011-12-31T14:21:41Z</time>
      </trkpt>
      <trkpt lat="42.8802" lon="-0.10805">
        <ele>1106.134033</ele>
        <time>2011-12-31T14:21:51Z</time>
      </trkpt>
      <trkpt lat="42.88021" lon="-0.10805">
        <ele>1106.134033</ele>
        <time>2011-12-31T14:21:52Z</time>
      </trkpt>
      <trkpt lat="42.88034" lon="-0.10815">
        <ele>1104.692139</ele>
        <time>2011-12-31T14:22:08Z</time>
      </trkpt>
      <trkpt lat="42.88036" lon="-0.10817">
        <ele>1104.21167</ele>
        <time>2011-12-31T14:22:10Z</time>
      </trkpt>
      <trkpt lat="42.88046" lon="-0.10815">
        <ele>1103.730957</ele>
        <time>2011-12-31T14:22:14Z</time>
      </trkpt>
      <trkpt lat="42.88062" lon="-0.10821">
        <ele>1103.250244</ele>
        <time>2011-12-31T14:22:29Z</time>
      </trkpt>
      <trkpt lat="42.88072" lon="-0.10827">
        <ele>1102.769531</ele>
        <time>2011-12-31T14:22:40Z</time>
      </trkpt>
      <trkpt lat="42.88097" lon="-0.1083">
        <ele>1102.769531</ele>
        <time>2011-12-31T14:22:58Z</time>
      </trkpt>
      <trkpt lat="42.88114" lon="-0.10836">
        <ele>1102.288818</ele>
        <time>2011-12-31T14:23:18Z</time>
      </trkpt>
      <trkpt lat="42.88133" lon="-0.10839">
        <ele>1100.366455</ele>
        <time>2011-12-31T14:23:33Z</time>
      </trkpt>
      <trkpt lat="42.8815" lon="-0.10848">
        <ele>1099.885498</ele>
        <time>2011-12-31T14:23:51Z</time>
      </trkpt>
      <trkpt lat="42.88157" lon="-0.10854">
        <ele>1098.443359</ele>
        <time>2011-12-31T14:24:03Z</time>
      </trkpt>
      <trkpt lat="42.88173" lon="-0.10861">
        <ele>1096.520996</ele>
        <time>2011-12-31T14:24:16Z</time>
      </trkpt>
      <trkpt lat="42.88199" lon="-0.10873">
        <ele>1094.117676</ele>
        <time>2011-12-31T14:24:41Z</time>
      </trkpt>
      <trkpt lat="42.88219" lon="-0.10893">
        <ele>1091.233643</ele>
        <time>2011-12-31T14:25:07Z</time>
      </trkpt>
      <trkpt lat="42.88238" lon="-0.10895">
        <ele>1090.272461</ele>
        <time>2011-12-31T14:25:22Z</time>
      </trkpt>
      <trkpt lat="42.88246" lon="-0.10904">
        <ele>1089.791748</ele>
        <time>2011-12-31T14:25:33Z</time>
      </trkpt>
      <trkpt lat="42.88256" lon="-0.10913">
        <ele>1089.311035</ele>
        <time>2011-12-31T14:25:43Z</time>
      </trkpt>
      <trkpt lat="42.88258" lon="-0.10912">
        <ele>1088.830566</ele>
        <time>2011-12-31T14:25:45Z</time>
      </trkpt>
      <trkpt lat="42.88264" lon="-0.10909">
        <ele>1088.830566</ele>
        <time>2011-12-31T14:25:49Z</time>
      </trkpt>
      <trkpt lat="42.88278" lon="-0.10916">
        <ele>1087.388428</ele>
        <time>2011-12-31T14:26:01Z</time>
      </trkpt>
      <trkpt lat="42.88289" lon="-0.10925">
        <ele>1087.869141</ele>
        <time>2011-12-31T14:26:12Z</time>
      </trkpt>
      <trkpt lat="42.88298" lon="-0.10927">
        <ele>1087.388428</ele>
        <time>2011-12-31T14:26:20Z</time>
      </trkpt>
      <trkpt lat="42.88315" lon="-0.10929">
        <ele>1086.907715</ele>
        <time>2011-12-31T14:26:34Z</time>
      </trkpt>
      <trkpt lat="42.88317" lon="-0.10928">
        <ele>1087.388428</ele>
        <time>2011-12-31T14:26:35Z</time>
      </trkpt>
      <trkpt lat="42.88321" lon="-0.1093">
        <ele>1086.907715</ele>
        <time>2011-12-31T14:26:47Z</time>
      </trkpt>
      <trkpt lat="42.88325" lon="-0.10921">
        <ele>1086.907715</ele>
        <time>2011-12-31T14:27:08Z</time>
      </trkpt>
      <trkpt lat="42.88328" lon="-0.1092">
        <ele>1086.907715</ele>
        <time>2011-12-31T14:27:11Z</time>
      </trkpt>
      <trkpt lat="42.88344" lon="-0.10901">
        <ele>1086.427246</ele>
        <time>2011-12-31T14:27:28Z</time>
      </trkpt>
      <trkpt lat="42.88348" lon="-0.10899">
        <ele>1086.427246</ele>
        <time>2011-12-31T14:27:31Z</time>
      </trkpt>
      <trkpt lat="42.88354" lon="-0.10901">
        <ele>1085.946533</ele>
        <time>2011-12-31T14:27:36Z</time>
      </trkpt>
      <trkpt lat="42.88361" lon="-0.10894">
        <ele>1084.023926</ele>
        <time>2011-12-31T14:27:51Z</time>
      </trkpt>
      <trkpt lat="42.88354" lon="-0.10905">
        <ele>1083.062256</ele>
        <time>2011-12-31T14:28:14Z</time>
      </trkpt>
      <trkpt lat="42.88383" lon="-0.10917">
        <ele>1082.581787</ele>
        <time>2011-12-31T14:28:32Z</time>
      </trkpt>
      <trkpt lat="42.88392" lon="-0.10925">
        <ele>1079.697754</ele>
        <time>2011-12-31T14:28:42Z</time>
      </trkpt>
      <trkpt lat="42.88404" lon="-0.10929">
        <ele>1078.255859</ele>
        <time>2011-12-31T14:28:53Z</time>
      </trkpt>
      <trkpt lat="42.88407" lon="-0.10933">
        <ele>1077.775146</ele>
        <time>2011-12-31T14:28:57Z</time>
      </trkpt>
      <trkpt lat="42.88416" lon="-0.10949">
        <ele>1077.294678</ele>
        <time>2011-12-31T14:29:11Z</time>
      </trkpt>
      <trkpt lat="42.88428" lon="-0.10958">
        <ele>1076.813965</ele>
        <time>2011-12-31T14:29:22Z</time>
      </trkpt>
      <trkpt lat="42.88444" lon="-0.10961">
        <ele>1076.333252</ele>
        <time>2011-12-31T14:29:35Z</time>
      </trkpt>
      <trkpt lat="42.88458" lon="-0.10963">
        <ele>1075.371826</ele>
        <time>2011-12-31T14:29:47Z</time>
      </trkpt>
      <trkpt lat="42.88477" lon="-0.10964">
        <ele>1074.410645</ele>
        <time>2011-12-31T14:30:03Z</time>
      </trkpt>
      <trkpt lat="42.88499" lon="-0.10972">
        <ele>1071.526611</ele>
        <time>2011-12-31T14:30:21Z</time>
      </trkpt>
      <trkpt lat="42.88515" lon="-0.1099">
        <ele>1069.604248</ele>
        <time>2011-12-31T14:30:37Z</time>
      </trkpt>
      <trkpt lat="42.88529" lon="-0.10996">
        <ele>1067.200684</ele>
        <time>2011-12-31T14:30:52Z</time>
      </trkpt>
      <trkpt lat="42.88545" lon="-0.11005">
        <ele>1064.31665</ele>
        <time>2011-12-31T14:31:16Z</time>
      </trkpt>
      <trkpt lat="42.88555" lon="-0.11006">
        <ele>1061.913574</ele>
        <time>2011-12-31T14:31:30Z</time>
      </trkpt>
      <trkpt lat="42.88548" lon="-0.11017">
        <ele>1058.548828</ele>
        <time>2011-12-31T14:31:48Z</time>
      </trkpt>
      <trkpt lat="42.88547" lon="-0.11017">
        <ele>1057.587646</ele>
        <time>2011-12-31T14:31:54Z</time>
      </trkpt>
      <trkpt lat="42.88559" lon="-0.11019">
        <ele>1053.742432</ele>
        <time>2011-12-31T14:32:10Z</time>
      </trkpt>
      <trkpt lat="42.88554" lon="-0.11026">
        <ele>1050.858154</ele>
        <time>2011-12-31T14:32:19Z</time>
      </trkpt>
      <trkpt lat="42.88555" lon="-0.11042">
        <ele>1050.377686</ele>
        <time>2011-12-31T14:32:34Z</time>
      </trkpt>
      <trkpt lat="42.88555" lon="-0.11049">
        <ele>1049.41626</ele>
        <time>2011-12-31T14:32:38Z</time>
      </trkpt>
      <trkpt lat="42.88554" lon="-0.1104">
        <ele>1047.493652</ele>
        <time>2011-12-31T14:32:56Z</time>
      </trkpt>
      <trkpt lat="42.88558" lon="-0.11031">
        <ele>1046.532471</ele>
        <time>2011-12-31T14:33:06Z</time>
      </trkpt>
      <trkpt lat="42.88567" lon="-0.11032">
        <ele>1045.571045</ele>
        <time>2011-12-31T14:33:22Z</time>
      </trkpt>
      <trkpt lat="42.88569" lon="-0.11044">
        <ele>1042.206543</ele>
        <time>2011-12-31T14:33:31Z</time>
      </trkpt>
      <trkpt lat="42.88573" lon="-0.11059">
        <ele>1039.803223</ele>
        <time>2011-12-31T14:33:46Z</time>
      </trkpt>
      <trkpt lat="42.88567" lon="-0.11051">
        <ele>1038.361328</ele>
        <time>2011-12-31T14:33:57Z</time>
      </trkpt>
      <trkpt lat="42.88572" lon="-0.11054">
        <ele>1036.438721</ele>
        <time>2011-12-31T14:34:09Z</time>
      </trkpt>
      <trkpt lat="42.88578" lon="-0.11052">
        <ele>1033.07373</ele>
        <time>2011-12-31T14:34:24Z</time>
      </trkpt>
      <trkpt lat="42.88594" lon="-0.11063">
        <ele>1030.189941</ele>
        <time>2011-12-31T14:34:42Z</time>
      </trkpt>
      <trkpt lat="42.88598" lon="-0.11067">
        <ele>1028.748047</ele>
        <time>2011-12-31T14:34:46Z</time>
      </trkpt>
      <trkpt lat="42.88616" lon="-0.11072">
        <ele>1026.825439</ele>
        <time>2011-12-31T14:35:01Z</time>
      </trkpt>
      <trkpt lat="42.88639" lon="-0.11087">
        <ele>1027.306152</ele>
        <time>2011-12-31T14:35:14Z</time>
      </trkpt>
      <trkpt lat="42.88643" lon="-0.11089">
        <ele>1027.306152</ele>
        <time>2011-12-31T14:35:18Z</time>
      </trkpt>
      <trkpt lat="42.88654" lon="-0.11082">
        <ele>1027.786621</ele>
        <time>2011-12-31T14:35:30Z</time>
      </trkpt>
      <trkpt lat="42.88668" lon="-0.11073">
        <ele>1028.748047</ele>
        <time>2011-12-31T14:35:55Z</time>
      </trkpt>
      <trkpt lat="42.88669" lon="-0.11075">
        <ele>1031.151367</ele>
        <time>2011-12-31T14:35:59Z</time>
      </trkpt>
      <trkpt lat="42.88681" lon="-0.11074">
        <ele>1033.554443</ele>
        <time>2011-12-31T14:36:12Z</time>
      </trkpt>
      <trkpt lat="42.88695" lon="-0.11072">
        <ele>1035.957764</ele>
        <time>2011-12-31T14:36:23Z</time>
      </trkpt>
      <trkpt lat="42.88707" lon="-0.1107">
        <ele>1036.919189</ele>
        <time>2011-12-31T14:36:35Z</time>
      </trkpt>
      <trkpt lat="42.88717" lon="-0.1107">
        <ele>1039.32251</ele>
        <time>2011-12-31T14:36:49Z</time>
      </trkpt>
      <trkpt lat="42.88731" lon="-0.11066">
        <ele>1039.32251</ele>
        <time>2011-12-31T14:37:01Z</time>
      </trkpt>
      <trkpt lat="42.88741" lon="-0.1106">
        <ele>1040.764404</ele>
        <time>2011-12-31T14:37:16Z</time>
      </trkpt>
      <trkpt lat="42.88749" lon="-0.11056">
        <ele>1041.72583</ele>
        <time>2011-12-31T14:37:28Z</time>
      </trkpt>
      <trkpt lat="42.8875" lon="-0.11056">
        <ele>1042.206543</ele>
        <time>2011-12-31T14:37:29Z</time>
      </trkpt>
      <trkpt lat="42.88759" lon="-0.11043">
        <ele>1043.167725</ele>
        <time>2011-12-31T14:37:42Z</time>
      </trkpt>
      <trkpt lat="42.88761" lon="-0.11042">
        <ele>1043.167725</ele>
        <time>2011-12-31T14:37:44Z</time>
      </trkpt>
      <trkpt lat="42.88774" lon="-0.11056">
        <ele>1043.167725</ele>
        <time>2011-12-31T14:38:00Z</time>
      </trkpt>
      <trkpt lat="42.88787" lon="-0.11072">
        <ele>1043.648438</ele>
        <time>2011-12-31T14:38:22Z</time>
      </trkpt>
      <trkpt lat="42.88793" lon="-0.11079">
        <ele>1043.648438</ele>
        <time>2011-12-31T14:38:37Z</time>
      </trkpt>
      <trkpt lat="42.88794" lon="-0.11075">
        <ele>1041.72583</ele>
        <time>2011-12-31T14:38:51Z</time>
      </trkpt>
      <trkpt lat="42.88791" lon="-0.11059">
        <ele>1042.206543</ele>
        <time>2011-12-31T14:39:16Z</time>
      </trkpt>
      <trkpt lat="42.88792" lon="-0.11053">
        <ele>1041.245117</ele>
        <time>2011-12-31T14:39:34Z</time>
      </trkpt>
      <trkpt lat="42.88797" lon="-0.11052">
        <ele>1037.880615</ele>
        <time>2011-12-31T14:39:45Z</time>
      </trkpt>
      <trkpt lat="42.88803" lon="-0.11061">
        <ele>1034.515869</ele>
        <time>2011-12-31T14:40:00Z</time>
      </trkpt>
      <trkpt lat="42.88804" lon="-0.11063">
        <ele>1034.515869</ele>
        <time>2011-12-31T14:40:01Z</time>
      </trkpt>
      <trkpt lat="42.88799" lon="-0.11067">
        <ele>1034.515869</ele>
        <time>2011-12-31T14:40:06Z</time>
      </trkpt>
      <trkpt lat="42.88786" lon="-0.11072">
        <ele>1031.631836</ele>
        <time>2011-12-31T14:40:21Z</time>
      </trkpt>
      <trkpt lat="42.88789" lon="-0.11071">
        <ele>1031.151367</ele>
        <time>2011-12-31T14:40:34Z</time>
      </trkpt>
      <trkpt lat="42.88782" lon="-0.11079">
        <ele>1030.670654</ele>
        <time>2011-12-31T14:40:47Z</time>
      </trkpt>
      <trkpt lat="42.88768" lon="-0.11089">
        <ele>1028.748047</ele>
        <time>2011-12-31T14:41:02Z</time>
      </trkpt>
      <trkpt lat="42.88771" lon="-0.11086">
        <ele>1027.786621</ele>
        <time>2011-12-31T14:41:19Z</time>
      </trkpt>
      <trkpt lat="42.88782" lon="-0.11084">
        <ele>1025.864014</ele>
        <time>2011-12-31T14:41:44Z</time>
      </trkpt>
      <trkpt lat="42.8879" lon="-0.11076">
        <ele>1024.422119</ele>
        <time>2011-12-31T14:41:59Z</time>
      </trkpt>
      <trkpt lat="42.88797" lon="-0.11074">
        <ele>1023.460938</ele>
        <time>2011-12-31T14:42:05Z</time>
      </trkpt>
      <trkpt lat="42.888" lon="-0.11075">
        <ele>1022.980225</ele>
        <time>2011-12-31T14:42:08Z</time>
      </trkpt>
      <trkpt lat="42.88812" lon="-0.11074">
        <ele>1022.018799</ele>
        <time>2011-12-31T14:42:23Z</time>
      </trkpt>
      <trkpt lat="42.88807" lon="-0.11081">
        <ele>1022.018799</ele>
        <time>2011-12-31T14:42:30Z</time>
      </trkpt>
      <trkpt lat="42.88796" lon="-0.11088">
        <ele>1019.615479</ele>
        <time>2011-12-31T14:42:44Z</time>
      </trkpt>
      <trkpt lat="42.88789" lon="-0.11094">
        <ele>1019.134766</ele>
        <time>2011-12-31T14:42:51Z</time>
      </trkpt>
      <trkpt lat="42.88791" lon="-0.11094">
        <ele>1017.692627</ele>
        <time>2011-12-31T14:43:05Z</time>
      </trkpt>
      <trkpt lat="42.88799" lon="-0.11086">
        <ele>1016.250732</ele>
        <time>2011-12-31T14:43:18Z</time>
      </trkpt>
      <trkpt lat="42.88807" lon="-0.11088">
        <ele>1015.289551</ele>
        <time>2011-12-31T14:43:29Z</time>
      </trkpt>
      <trkpt lat="42.88813" lon="-0.11091">
        <ele>1013.366943</ele>
        <time>2011-12-31T14:43:41Z</time>
      </trkpt>
      <trkpt lat="42.888" lon="-0.111">
        <ele>1012.405518</ele>
        <time>2011-12-31T14:43:56Z</time>
      </trkpt>
      <trkpt lat="42.88792" lon="-0.11105">
        <ele>1010.963623</ele>
        <time>2011-12-31T14:44:08Z</time>
      </trkpt>
      <trkpt lat="42.88794" lon="-0.11104">
        <ele>1007.599121</ele>
        <time>2011-12-31T14:44:20Z</time>
      </trkpt>
      <trkpt lat="42.88806" lon="-0.11104">
        <ele>1005.676514</ele>
        <time>2011-12-31T14:44:34Z</time>
      </trkpt>
      <trkpt lat="42.88815" lon="-0.11104">
        <ele>1005.195801</ele>
        <time>2011-12-31T14:44:46Z</time>
      </trkpt>
      <trkpt lat="42.88818" lon="-0.11109">
        <ele>1003.753662</ele>
        <time>2011-12-31T14:44:58Z</time>
      </trkpt>
      <trkpt lat="42.88817" lon="-0.1111">
        <ele>1003.753662</ele>
        <time>2011-12-31T14:45:00Z</time>
      </trkpt>
      <trkpt lat="42.88807" lon="-0.11119">
        <ele>1001.831055</ele>
        <time>2011-12-31T14:45:16Z</time>
      </trkpt>
      <trkpt lat="42.88802" lon="-0.11122">
        <ele>1001.831055</ele>
        <time>2011-12-31T14:45:21Z</time>
      </trkpt>
      <trkpt lat="42.88793" lon="-0.11131">
        <ele>999.427734</ele>
        <time>2011-12-31T14:45:34Z</time>
      </trkpt>
      <trkpt lat="42.88806" lon="-0.11124">
        <ele>997.98584</ele>
        <time>2011-12-31T14:45:48Z</time>
      </trkpt>
      <trkpt lat="42.88821" lon="-0.11121">
        <ele>995.101807</ele>
        <time>2011-12-31T14:46:03Z</time>
      </trkpt>
      <trkpt lat="42.88822" lon="-0.11125">
        <ele>994.140625</ele>
        <time>2011-12-31T14:46:10Z</time>
      </trkpt>
      <trkpt lat="42.88807" lon="-0.1114">
        <ele>992.69873</ele>
        <time>2011-12-31T14:46:25Z</time>
      </trkpt>
      <trkpt lat="42.88802" lon="-0.11142">
        <ele>992.218018</ele>
        <time>2011-12-31T14:46:29Z</time>
      </trkpt>
      <trkpt lat="42.88796" lon="-0.11146">
        <ele>990.29541</ele>
        <time>2011-12-31T14:46:44Z</time>
      </trkpt>
      <trkpt lat="42.88801" lon="-0.11142">
        <ele>989.814697</ele>
        <time>2011-12-31T14:46:49Z</time>
      </trkpt>
      <trkpt lat="42.88805" lon="-0.1114">
        <ele>989.814697</ele>
        <time>2011-12-31T14:46:53Z</time>
      </trkpt>
      <trkpt lat="42.88815" lon="-0.11136">
        <ele>989.333984</ele>
        <time>2011-12-31T14:47:03Z</time>
      </trkpt>
      <trkpt lat="42.88825" lon="-0.11138">
        <ele>987.891846</ele>
        <time>2011-12-31T14:47:15Z</time>
      </trkpt>
      <trkpt lat="42.88812" lon="-0.11154">
        <ele>986.449951</ele>
        <time>2011-12-31T14:47:30Z</time>
      </trkpt>
      <trkpt lat="42.88802" lon="-0.11164">
        <ele>984.046631</ele>
        <time>2011-12-31T14:47:46Z</time>
      </trkpt>
      <trkpt lat="42.88801" lon="-0.11163">
        <ele>983.085205</ele>
        <time>2011-12-31T14:47:58Z</time>
      </trkpt>
      <trkpt lat="42.88802" lon="-0.11162">
        <ele>983.085205</ele>
        <time>2011-12-31T14:48:01Z</time>
      </trkpt>
      <trkpt lat="42.88817" lon="-0.11158">
        <ele>980.201416</ele>
        <time>2011-12-31T14:48:15Z</time>
      </trkpt>
      <trkpt lat="42.88832" lon="-0.11153">
        <ele>979.23999</ele>
        <time>2011-12-31T14:48:29Z</time>
      </trkpt>
      <trkpt lat="42.88833" lon="-0.11159">
        <ele>976.836914</ele>
        <time>2011-12-31T14:48:42Z</time>
      </trkpt>
      <trkpt lat="42.88827" lon="-0.11173">
        <ele>975.875488</ele>
        <time>2011-12-31T14:48:57Z</time>
      </trkpt>
      <trkpt lat="42.88826" lon="-0.11174">
        <ele>975.394775</ele>
        <time>2011-12-31T14:48:58Z</time>
      </trkpt>
      <trkpt lat="42.88821" lon="-0.11178">
        <ele>974.914307</ele>
        <time>2011-12-31T14:49:04Z</time>
      </trkpt>
      <trkpt lat="42.88809" lon="-0.11187">
        <ele>973.952881</ele>
        <time>2011-12-31T14:49:17Z</time>
      </trkpt>
      <trkpt lat="42.88799" lon="-0.11188">
        <ele>972.510986</ele>
        <time>2011-12-31T14:49:31Z</time>
      </trkpt>
      <trkpt lat="42.88805" lon="-0.11186">
        <ele>971.068848</ele>
        <time>2011-12-31T14:49:40Z</time>
      </trkpt>
      <trkpt lat="42.8882" lon="-0.1118">
        <ele>969.626953</ele>
        <time>2011-12-31T14:49:55Z</time>
      </trkpt>
      <trkpt lat="42.88836" lon="-0.11172">
        <ele>967.223633</ele>
        <time>2011-12-31T14:50:12Z</time>
      </trkpt>
      <trkpt lat="42.8884" lon="-0.11179">
        <ele>965.781738</ele>
        <time>2011-12-31T14:50:28Z</time>
      </trkpt>
      <trkpt lat="42.88831" lon="-0.11192">
        <ele>963.858887</ele>
        <time>2011-12-31T14:50:41Z</time>
      </trkpt>
      <trkpt lat="42.8883" lon="-0.11194">
        <ele>962.897705</ele>
        <time>2011-12-31T14:50:43Z</time>
      </trkpt>
      <trkpt lat="42.88822" lon="-0.11203">
        <ele>960.975098</ele>
        <time>2011-12-31T14:50:59Z</time>
      </trkpt>
      <trkpt lat="42.88826" lon="-0.11197">
        <ele>960.013672</ele>
        <time>2011-12-31T14:51:04Z</time>
      </trkpt>
      <trkpt lat="42.88838" lon="-0.11188">
        <ele>958.571777</ele>
        <time>2011-12-31T14:51:18Z</time>
      </trkpt>
      <trkpt lat="42.88847" lon="-0.11185">
        <ele>958.091309</ele>
        <time>2011-12-31T14:51:34Z</time>
      </trkpt>
      <trkpt lat="42.88844" lon="-0.112">
        <ele>957.129883</ele>
        <time>2011-12-31T14:51:45Z</time>
      </trkpt>
      <trkpt lat="42.8884" lon="-0.11205">
        <ele>956.64917</ele>
        <time>2011-12-31T14:51:51Z</time>
      </trkpt>
      <trkpt lat="42.88837" lon="-0.11221">
        <ele>953.765137</ele>
        <time>2011-12-31T14:52:07Z</time>
      </trkpt>
      <trkpt lat="42.88841" lon="-0.11217">
        <ele>952.803711</ele>
        <time>2011-12-31T14:52:13Z</time>
      </trkpt>
      <trkpt lat="42.88844" lon="-0.11214">
        <ele>951.361816</ele>
        <time>2011-12-31T14:52:16Z</time>
      </trkpt>
      <trkpt lat="42.88852" lon="-0.11211">
        <ele>950.400635</ele>
        <time>2011-12-31T14:52:24Z</time>
      </trkpt>
      <trkpt lat="42.88858" lon="-0.11209">
        <ele>948.958496</ele>
        <time>2011-12-31T14:52:31Z</time>
      </trkpt>
      <trkpt lat="42.88863" lon="-0.11208">
        <ele>947.997314</ele>
        <time>2011-12-31T14:52:36Z</time>
      </trkpt>
      <trkpt lat="42.88867" lon="-0.11201">
        <ele>947.035889</ele>
        <time>2011-12-31T14:52:43Z</time>
      </trkpt>
      <trkpt lat="42.88876" lon="-0.11199">
        <ele>945.593994</ele>
        <time>2011-12-31T14:53:00Z</time>
      </trkpt>
      <trkpt lat="42.88883" lon="-0.11205">
        <ele>945.593994</ele>
        <time>2011-12-31T14:53:12Z</time>
      </trkpt>
      <trkpt lat="42.88903" lon="-0.11214">
        <ele>945.593994</ele>
        <time>2011-12-31T14:53:27Z</time>
      </trkpt>
      <trkpt lat="42.88921" lon="-0.1122">
        <ele>945.593994</ele>
        <time>2011-12-31T14:53:45Z</time>
      </trkpt>
      <trkpt lat="42.8891" lon="-0.11227">
        <ele>943.671387</ele>
        <time>2011-12-31T14:54:01Z</time>
      </trkpt>
      <trkpt lat="42.88903" lon="-0.11232">
        <ele>940.306885</ele>
        <time>2011-12-31T14:54:14Z</time>
      </trkpt>
      <trkpt lat="42.88901" lon="-0.11235">
        <ele>939.825928</ele>
        <time>2011-12-31T14:54:17Z</time>
      </trkpt>
      <trkpt lat="42.88895" lon="-0.11241">
        <ele>940.306885</ele>
        <time>2011-12-31T14:54:23Z</time>
      </trkpt>
      <trkpt lat="42.88886" lon="-0.11261">
        <ele>939.345215</ele>
        <time>2011-12-31T14:54:38Z</time>
      </trkpt>
      <trkpt lat="42.88871" lon="-0.11273">
        <ele>937.90332</ele>
        <time>2011-12-31T14:54:55Z</time>
      </trkpt>
      <trkpt lat="42.8887" lon="-0.11274">
        <ele>937.422607</ele>
        <time>2011-12-31T14:54:57Z</time>
      </trkpt>
      <trkpt lat="42.88858" lon="-0.11297">
        <ele>935.019531</ele>
        <time>2011-12-31T14:55:13Z</time>
      </trkpt>
      <trkpt lat="42.88853" lon="-0.11322">
        <ele>934.538818</ele>
        <time>2011-12-31T14:55:29Z</time>
      </trkpt>
      <trkpt lat="42.88857" lon="-0.11343">
        <ele>935.019531</ele>
        <time>2011-12-31T14:55:43Z</time>
      </trkpt>
      <trkpt lat="42.8885" lon="-0.11362">
        <ele>935.019531</ele>
        <time>2011-12-31T14:55:56Z</time>
      </trkpt>
      <trkpt lat="42.88846" lon="-0.11375">
        <ele>935.019531</ele>
        <time>2011-12-31T14:56:08Z</time>
      </trkpt>
    </trkseg>
  </trk>
</gpx>